createdAt,value
2022-08-31T03:58:24.557Z,12.00
2022-08-31T03:59:23.940Z,12.00
2022-08-31T04:00:22.929Z,12.00
2022-08-31T04:01:24.609Z,16.00
2022-08-31T04:02:22.952Z,16.00
2022-08-31T04:03:24.558Z,16.00
2022-08-31T04:04:23.908Z,16.00
2022-08-31T04:05:24.559Z,16.00
2022-08-31T04:06:24.554Z,16.00
2022-08-31T04:07:22.887Z,16.00
2022-08-31T04:08:22.884Z,16.00
2022-08-31T04:09:22.883Z,16.00
2022-08-31T04:10:22.883Z,16.00
2022-08-31T04:11:37.158Z,16.00
2022-08-31T04:12:22.868Z,16.00
2022-08-31T04:13:26.733Z,20.00
2022-08-31T04:14:22.871Z,16.00
2022-08-31T04:15:22.861Z,20.00
2022-08-31T04:16:24.700Z,20.00
2022-08-31T04:17:22.858Z,20.00
2022-08-31T04:18:22.857Z,24.00
2022-08-31T04:19:22.863Z,24.00
2022-08-31T04:20:24.467Z,24.00
2022-08-31T04:21:24.589Z,28.00
2022-08-31T04:22:24.559Z,24.00
2022-08-31T04:23:24.558Z,28.00
2022-08-31T04:24:25.073Z,32.00
2022-08-31T04:25:24.560Z,32.00
2022-08-31T04:26:24.584Z,36.00
2022-08-31T04:27:24.561Z,40.00
2022-08-31T04:28:24.560Z,44.00
2022-08-31T04:29:24.574Z,44.00
2022-08-31T04:30:24.577Z,48.00
2022-08-31T04:31:24.652Z,56.00
2022-08-31T04:32:22.871Z,56.00
2022-08-31T04:33:24.588Z,60.00
2022-08-31T04:34:24.587Z,68.00
2022-08-31T04:35:24.592Z,72.00
2022-08-31T04:36:24.579Z,76.00
2022-08-31T04:37:24.582Z,80.00
2022-08-31T04:38:24.842Z,88.00
2022-08-31T04:39:24.577Z,92.00
2022-08-31T04:40:25.984Z,100.00
2022-08-31T04:41:24.590Z,104.00
2022-08-31T04:42:24.575Z,112.00
2022-08-31T04:43:24.597Z,120.00
2022-08-31T04:44:24.595Z,124.00
2022-08-31T04:45:24.607Z,136.00
2022-08-31T04:46:24.670Z,140.00
2022-08-31T04:47:24.580Z,152.00
2022-08-31T04:48:24.606Z,160.00
2022-08-31T04:49:24.600Z,172.00
2022-08-31T04:50:22.773Z,176.00
2022-08-31T04:51:24.108Z,180.00
2022-08-31T04:52:28.126Z,188.00
2022-08-31T04:53:22.779Z,196.00
2022-08-31T04:54:24.608Z,208.00
2022-08-31T04:55:24.592Z,216.00
2022-08-31T04:56:23.611Z,224.00
2022-08-31T04:57:22.759Z,232.00
2022-08-31T04:58:22.770Z,240.00
2022-08-31T04:59:24.598Z,248.00
2022-08-31T05:00:24.632Z,260.00
2022-08-31T05:01:22.833Z,268.00
2022-08-31T05:02:24.640Z,280.00
2022-08-31T05:03:23.755Z,284.00
2022-08-31T05:04:24.635Z,296.00
2022-08-31T05:05:24.606Z,304.00
2022-08-31T05:06:24.611Z,312.00
2022-08-31T05:07:24.593Z,320.00
2022-08-31T05:08:23.736Z,332.00
2022-08-31T05:09:24.604Z,340.00
2022-08-31T05:10:24.600Z,352.00
2022-08-31T05:11:25.234Z,364.00
2022-08-31T05:12:24.629Z,380.00
2022-08-31T05:13:22.725Z,396.00
2022-08-31T05:14:24.115Z,412.00
2022-08-31T05:15:22.725Z,428.00
2022-08-31T05:16:22.829Z,440.00
2022-08-31T05:17:22.715Z,460.00
2022-08-31T05:18:22.711Z,472.00
2022-08-31T05:19:24.136Z,492.00
2022-08-31T05:20:22.718Z,508.00
2022-08-31T05:21:22.712Z,524.00
2022-08-31T05:22:22.714Z,532.00
2022-08-31T05:23:22.707Z,536.00
2022-08-31T05:24:24.852Z,540.00
2022-08-31T05:25:22.814Z,544.00
2022-08-31T05:26:26.702Z,548.00
2022-08-31T05:27:23.693Z,552.00
2022-08-31T05:28:23.799Z,552.00
2022-08-31T05:29:24.133Z,556.00
2022-08-31T05:30:22.686Z,564.00
2022-08-31T05:31:24.694Z,572.00
2022-08-31T05:32:22.728Z,584.00
2022-08-31T05:33:22.690Z,596.00
2022-08-31T05:34:24.142Z,612.00
2022-08-31T05:35:24.619Z,624.00
2022-08-31T05:36:22.670Z,632.00
2022-08-31T05:37:24.625Z,652.00
2022-08-31T05:38:22.791Z,664.00
2022-08-31T05:39:24.666Z,680.00
2022-08-31T05:40:23.786Z,700.00
2022-08-31T05:41:24.648Z,716.00
2022-08-31T05:42:22.697Z,732.00
2022-08-31T05:43:22.660Z,744.00
2022-08-31T05:44:28.841Z,756.00
2022-08-31T05:45:23.695Z,772.00
2022-08-31T05:46:22.757Z,788.00
2022-08-31T05:47:24.585Z,808.00
2022-08-31T05:48:22.755Z,836.00
2022-08-31T05:49:24.209Z,868.00
2022-08-31T05:50:22.727Z,948.00
2022-08-31T05:51:22.986Z,1112.00
2022-08-31T05:52:24.855Z,1256.00
2022-08-31T05:53:24.154Z,1364.00
2022-08-31T05:54:26.571Z,1396.00
2022-08-31T05:55:22.946Z,1312.00
2022-08-31T05:56:22.741Z,1292.00
2022-08-31T05:57:26.800Z,1300.00
2022-08-31T05:58:22.660Z,1192.00
2022-08-31T05:59:24.178Z,1112.00
2022-08-31T06:00:24.262Z,1152.00
2022-08-31T06:01:25.056Z,1220.00
2022-08-31T06:02:29.640Z,1236.00
2022-08-31T06:03:22.801Z,1236.00
2022-08-31T06:04:24.167Z,1240.00
2022-08-31T06:05:25.944Z,1212.00
2022-08-31T06:06:24.150Z,1168.00
2022-08-31T06:07:25.102Z,1164.00
2022-08-31T06:08:27.315Z,1176.00
2022-08-31T06:09:24.211Z,1196.00
2022-08-31T06:10:22.654Z,1228.00
2022-08-31T06:11:38.185Z,1252.00
2022-08-31T06:12:22.651Z,1268.00
2022-08-31T06:13:24.333Z,1280.00
2022-08-31T06:14:24.171Z,1320.00
2022-08-31T06:15:24.153Z,1428.00
2022-08-31T06:16:24.261Z,1516.00
2022-08-31T06:17:24.369Z,1596.00
2022-08-31T06:18:23.674Z,1728.00
2022-08-31T06:19:24.189Z,1844.00
2022-08-31T06:20:22.599Z,1948.00
2022-08-31T06:21:22.594Z,1936.00
2022-08-31T06:22:22.597Z,1936.00
2022-08-31T06:23:22.588Z,2072.00
2022-08-31T06:24:23.688Z,2044.00
2022-08-31T06:25:22.634Z,1980.00
2022-08-31T06:26:23.715Z,1696.00
2022-08-31T06:27:23.587Z,1508.00
2022-08-31T06:28:24.179Z,1480.00
2022-08-31T06:29:24.188Z,1492.00
2022-08-31T06:30:24.191Z,1524.00
2022-08-31T06:31:24.319Z,1524.00
2022-08-31T06:32:24.221Z,1528.00
2022-08-31T06:33:24.289Z,1564.00
2022-08-31T06:34:24.225Z,1604.00
2022-08-31T06:35:24.180Z,1624.00
2022-08-31T06:36:23.561Z,1620.00
2022-08-31T06:37:23.590Z,1620.00
2022-08-31T06:38:24.173Z,1640.00
2022-08-31T06:39:24.239Z,1644.00
2022-08-31T06:40:24.316Z,1648.00
2022-08-31T06:41:22.555Z,1652.00
2022-08-31T06:42:22.574Z,1656.00
2022-08-31T06:43:22.617Z,1672.00
2022-08-31T06:44:25.204Z,1668.00
2022-08-31T06:45:22.546Z,1680.00
2022-08-31T06:46:22.679Z,1684.00
2022-08-31T06:47:24.206Z,1688.00
2022-08-31T06:48:22.546Z,1688.00
2022-08-31T06:49:22.737Z,1704.00
2022-08-31T06:50:24.221Z,1732.00
2022-08-31T06:51:22.617Z,1776.00
2022-08-31T06:52:22.628Z,1808.00
2022-08-31T06:53:22.677Z,1872.00
2022-08-31T06:57:22.979Z,1928.00
2022-08-31T06:58:21.370Z,1980.00
2022-08-31T06:59:27.730Z,2192.00
2022-08-31T07:00:21.357Z,2340.00
2022-08-31T07:01:26.157Z,2312.00
2022-08-31T07:02:22.460Z,2268.00
2022-08-31T07:03:21.350Z,2280.00
2022-08-31T07:04:21.344Z,2372.00
2022-08-31T07:05:24.395Z,2468.00
2022-08-31T07:06:21.363Z,2336.00
2022-08-31T07:07:22.382Z,2148.00
2022-08-31T07:08:21.356Z,2068.00
2022-08-31T07:09:21.335Z,2008.00
2022-08-31T07:10:22.990Z,1952.00
2022-08-31T07:11:22.251Z,1916.00
2022-08-31T07:12:22.229Z,1904.00
2022-08-31T07:13:21.335Z,1916.00
2022-08-31T07:14:21.411Z,1936.00
2022-08-31T07:15:24.119Z,1980.00
2022-08-31T07:16:21.412Z,2016.00
2022-08-31T07:17:21.455Z,2012.00
2022-08-31T07:18:23.076Z,2000.00
2022-08-31T07:19:27.986Z,1996.00
2022-08-31T07:20:22.508Z,2012.00
2022-08-31T07:23:30.086Z,2012.00
2022-08-31T07:24:06.521Z,2052.00
2022-08-31T07:25:08.065Z,2172.00
2022-08-31T07:26:09.233Z,2236.00
2022-08-31T07:27:06.513Z,2340.00
2022-08-31T07:28:08.153Z,2448.00
2022-08-31T07:29:08.111Z,2524.00
2022-08-31T07:30:09.481Z,2548.00
2022-08-31T07:31:08.274Z,2636.00
2022-08-31T07:32:07.239Z,2740.00
2022-08-31T07:33:20.378Z,2824.00
2022-08-31T07:34:10.191Z,2908.00
2022-08-31T07:35:09.512Z,2996.00
2022-08-31T07:36:10.175Z,3140.00
2022-08-31T07:37:11.187Z,3128.00
2022-08-31T07:38:21.155Z,3168.00
2022-08-31T07:39:06.834Z,3192.00
2022-08-31T07:40:07.860Z,3040.00
2022-08-31T07:41:09.158Z,3176.00
2022-08-31T07:42:06.811Z,3560.00
2022-08-31T07:43:06.703Z,3612.00
2022-08-31T07:44:22.125Z,3668.00
2022-08-31T07:45:09.371Z,3912.00
2022-08-31T07:46:06.705Z,3932.00
2022-08-31T07:47:06.644Z,4084.00
2022-08-31T07:48:13.231Z,4088.00
2022-08-31T07:49:07.499Z,4016.00
2022-08-31T07:50:12.833Z,3944.00
2022-08-31T07:51:11.411Z,3636.00
2022-08-31T07:52:08.102Z,3304.00
2022-08-31T07:53:06.781Z,3120.00
2022-08-31T07:54:06.550Z,3224.00
2022-08-31T07:55:13.086Z,3376.00
2022-08-31T07:56:08.345Z,3280.00
2022-08-31T07:57:14.707Z,2880.00
2022-08-31T07:58:08.201Z,2560.00
2022-08-31T07:59:07.011Z,2480.00
2022-08-31T08:00:08.150Z,2432.00
2022-08-31T08:01:07.532Z,2400.00
2022-08-31T08:02:08.222Z,2428.00
2022-08-31T08:03:08.259Z,2404.00
2022-08-31T08:04:06.566Z,2428.00
2022-08-31T08:05:08.109Z,2428.00
2022-08-31T08:06:08.222Z,2440.00
2022-08-31T08:07:08.105Z,2436.00
2022-08-31T08:08:13.421Z,2372.00
2022-08-31T08:09:24.023Z,2312.00
2022-08-31T08:10:08.090Z,2228.00
2022-08-31T08:11:09.566Z,2152.00
2022-08-31T08:12:07.458Z,2064.00
2022-08-31T08:13:06.546Z,2012.00
2022-08-31T08:14:08.663Z,1880.00
2022-08-31T08:15:06.506Z,1748.00
2022-08-31T08:16:06.527Z,1672.00
2022-08-31T08:17:08.113Z,1636.00
2022-08-31T08:18:08.114Z,1624.00
2022-08-31T08:19:06.493Z,1624.00
2022-08-31T08:20:11.605Z,1640.00
2022-08-31T08:21:06.498Z,1700.00
2022-08-31T08:22:07.500Z,1772.00
2022-08-31T08:23:08.129Z,1808.00
2022-08-31T08:25:06.518Z,1844.00
2022-08-31T08:26:08.125Z,1940.00
2022-08-31T08:27:06.486Z,2036.00
2022-08-31T08:28:28.976Z,2084.00
2022-08-31T08:29:08.132Z,2020.00
2022-08-31T08:30:10.135Z,1956.00
2022-08-31T08:31:06.643Z,1992.00
2022-08-31T08:32:06.487Z,2044.00
2022-08-31T08:33:08.220Z,2200.00
2022-08-31T08:34:06.516Z,2284.00
2022-08-31T08:35:09.144Z,2324.00
2022-08-31T08:36:08.412Z,2356.00
2022-08-31T08:37:08.129Z,2484.00
2022-08-31T08:39:06.606Z,2480.00
2022-08-31T08:40:08.172Z,2620.00
2022-08-31T08:41:08.387Z,2776.00
2022-08-31T08:42:07.135Z,2704.00
2022-08-31T08:44:08.148Z,2744.00
2022-08-31T08:45:08.136Z,2772.00
2022-08-31T08:46:25.573Z,2872.00
2022-08-31T08:47:08.123Z,3092.00
2022-08-31T08:48:09.180Z,3100.00
2022-08-31T08:49:08.137Z,2940.00
2022-08-31T08:50:06.492Z,2988.00
2022-08-31T08:51:08.183Z,3180.00
2022-08-31T08:53:08.191Z,3056.00
2022-08-31T08:54:08.131Z,2932.00
2022-08-31T08:55:08.138Z,2968.00
2022-08-31T08:56:31.883Z,3208.00
2022-08-31T08:57:08.228Z,3396.00
2022-08-31T08:58:08.136Z,3520.00
2022-08-31T08:59:11.499Z,3620.00
2022-08-31T09:00:09.152Z,3656.00
2022-08-31T09:01:08.235Z,3452.00
2022-08-31T09:02:08.281Z,3056.00
2022-08-31T09:03:08.152Z,2976.00
2022-08-31T09:04:06.518Z,3148.00
2022-08-31T09:05:08.184Z,3452.00
2022-08-31T09:06:08.161Z,3676.00
2022-08-31T09:07:08.207Z,3692.00
2022-08-31T09:08:06.482Z,3664.00
2022-08-31T09:09:09.168Z,3648.00
2022-08-31T09:10:08.160Z,3484.00
2022-08-31T09:11:08.148Z,3152.00
2022-08-31T09:12:11.380Z,3016.00
2022-08-31T09:13:08.469Z,3052.00
2022-08-31T09:14:08.196Z,3300.00
2022-08-31T09:15:09.217Z,3400.00
2022-08-31T09:16:06.576Z,3472.00
2022-08-31T09:17:06.501Z,3536.00
2022-08-31T09:18:06.507Z,3576.00
2022-08-31T09:19:06.498Z,3668.00
2022-08-31T09:20:08.253Z,3668.00
2022-08-31T09:21:06.674Z,3660.00
2022-08-31T09:22:06.504Z,3612.00
2022-08-31T09:23:08.353Z,3592.00
2022-08-31T09:24:09.191Z,3556.00
2022-08-31T09:25:10.699Z,3508.00
2022-08-31T09:26:32.733Z,3448.00
2022-08-31T09:27:06.826Z,3284.00
2022-08-31T09:28:09.632Z,3388.00
2022-08-31T09:29:07.278Z,3416.00
2022-08-31T09:31:08.240Z,3444.00
2022-08-31T09:32:09.321Z,3464.00
2022-08-31T09:33:07.286Z,3488.00
2022-08-31T09:34:06.556Z,3252.00
2022-08-31T09:35:06.535Z,3320.00
2022-08-31T09:36:08.196Z,3380.00
2022-08-31T09:37:06.539Z,3432.00
2022-08-31T09:38:07.213Z,3468.00
2022-08-31T09:39:06.526Z,3424.00
2022-08-31T09:40:07.499Z,3276.00
2022-08-31T09:41:08.274Z,3260.00
2022-08-31T09:42:06.543Z,3180.00
2022-08-31T09:43:06.542Z,3096.00
2022-08-31T09:44:06.534Z,3108.00
2022-08-31T09:45:10.283Z,3104.00
2022-08-31T09:47:09.208Z,2940.00
2022-08-31T09:48:07.017Z,2912.00
2022-08-31T09:49:06.794Z,2976.00
2022-08-31T09:50:06.598Z,3068.00
2022-08-31T09:51:08.219Z,3160.00
2022-08-31T09:52:06.871Z,3176.00
2022-08-31T09:53:06.570Z,3188.00
2022-08-31T09:54:08.257Z,3212.00
2022-08-31T09:55:06.562Z,3292.00
2022-08-31T09:56:06.540Z,3332.00
2022-08-31T09:57:06.612Z,3280.00
2022-08-31T09:58:08.274Z,3268.00
2022-08-31T09:59:06.554Z,3272.00
2022-08-31T10:00:08.217Z,3304.00
2022-08-31T10:01:06.657Z,3340.00
2022-08-31T10:12:42.470Z,3548.00
2022-08-31T10:13:43.963Z,3536.00
2022-08-31T10:14:41.463Z,3616.00
2022-08-31T10:15:41.475Z,3652.00
2022-08-31T10:16:42.963Z,3684.00
2022-08-31T10:17:43.002Z,3732.00
2022-08-31T10:18:41.437Z,3776.00
2022-08-31T10:19:42.982Z,3816.00
2022-08-31T10:20:41.446Z,3872.00
2022-08-31T10:21:46.223Z,3844.00
2022-08-31T10:22:41.414Z,3880.00
2022-08-31T10:23:42.736Z,3888.00
2022-08-31T10:24:41.719Z,3920.00
2022-08-31T10:25:41.709Z,3896.00
2022-08-31T10:26:43.119Z,2736.00
2022-08-31T10:27:41.429Z,3980.00
2022-08-31T10:28:42.962Z,4068.00
2022-08-31T10:29:42.427Z,4100.00
2022-08-31T10:30:42.525Z,4116.00
2022-08-31T10:31:42.976Z,2956.00
2022-08-31T10:32:41.498Z,4088.00
2022-08-31T10:33:42.956Z,4156.00
2022-08-31T10:34:42.372Z,4152.00
2022-08-31T10:35:42.626Z,4192.00
2022-08-31T10:36:41.452Z,4240.00
2022-08-31T10:37:42.983Z,4196.00
2022-08-31T10:38:41.466Z,4124.00
2022-08-31T10:39:42.981Z,4184.00
2022-08-31T10:40:41.695Z,4252.00
2022-08-31T10:41:41.466Z,4300.00
2022-08-31T10:42:41.490Z,4348.00
2022-08-31T10:43:41.505Z,4344.00
2022-08-31T10:44:43.592Z,4376.00
2022-08-31T10:45:41.482Z,4388.00
2022-08-31T10:46:44.488Z,4384.00
2022-08-31T10:47:42.526Z,4388.00
2022-08-31T10:48:41.485Z,4408.00
2022-08-31T10:49:43.511Z,4400.00
2022-08-31T10:50:41.496Z,4220.00
2022-08-31T10:51:41.508Z,4148.00
2022-08-31T10:52:44.501Z,4172.00
2022-08-31T10:53:42.995Z,4196.00
2022-08-31T10:54:41.711Z,4048.00
2022-08-31T10:55:41.532Z,4284.00
2022-08-31T10:56:41.595Z,4340.00
2022-08-31T10:57:41.614Z,4308.00
2022-08-31T10:58:44.500Z,4324.00
2022-08-31T10:59:41.557Z,4332.00
2022-08-31T11:00:41.543Z,4452.00
2022-08-31T11:01:43.599Z,4560.00
2022-08-31T11:02:44.720Z,4588.00
2022-08-31T11:03:44.530Z,4676.00
2022-08-31T11:04:43.527Z,4716.00
2022-08-31T11:05:45.506Z,4768.00
2022-08-31T11:06:43.523Z,4824.00
2022-08-31T11:07:43.603Z,4792.00
2022-08-31T11:08:43.531Z,4772.00
2022-08-31T11:09:43.655Z,4772.00
2022-08-31T11:10:43.494Z,4764.00
2022-08-31T11:11:43.935Z,4740.00
2022-08-31T11:12:43.546Z,4784.00
2022-08-31T11:13:42.830Z,4828.00
2022-08-31T11:14:43.038Z,4832.00
2022-08-31T11:15:42.271Z,4928.00
2022-08-31T11:16:44.237Z,4940.00
2022-08-31T11:17:41.643Z,4988.00
2022-08-31T11:18:43.870Z,5044.00
2022-08-31T11:19:41.619Z,5064.00
2022-08-31T11:20:43.617Z,5072.00
2022-08-31T11:21:41.655Z,5064.00
2022-08-31T11:22:45.558Z,5140.00
2022-08-31T11:23:45.259Z,5140.00
2022-08-31T11:24:41.642Z,5172.00
2022-08-31T11:25:43.512Z,5192.00
2022-08-31T11:26:43.528Z,5340.00
2022-08-31T11:27:43.515Z,5368.00
2022-08-31T11:28:44.884Z,5368.00
2022-08-31T11:29:41.728Z,5404.00
2022-08-31T11:30:43.629Z,5428.00
2022-08-31T11:31:41.838Z,5416.00
2022-08-31T11:32:43.521Z,5392.00
2022-08-31T11:33:55.268Z,5452.00
2022-08-31T11:34:43.311Z,5484.00
2022-08-31T11:35:43.616Z,5560.00
2022-08-31T11:36:41.704Z,5592.00
2022-08-31T11:37:43.536Z,5644.00
2022-08-31T11:38:43.528Z,5592.00
2022-08-31T11:39:43.526Z,5616.00
2022-08-31T11:40:43.779Z,5696.00
2022-08-31T11:41:43.533Z,5700.00
2022-08-31T11:42:43.539Z,5828.00
2022-08-31T11:43:43.545Z,5880.00
2022-08-31T11:44:43.549Z,5896.00
2022-08-31T11:45:43.583Z,5804.00
2022-08-31T11:46:43.758Z,5816.00
2022-08-31T11:47:41.775Z,5732.00
2022-08-31T11:48:43.541Z,5828.00
2022-08-31T11:49:43.561Z,5912.00
2022-08-31T11:50:41.790Z,5984.00
2022-08-31T11:51:41.998Z,5928.00
2022-08-31T11:52:43.632Z,6232.00
2022-08-31T11:53:41.820Z,6300.00
2022-08-31T11:54:43.563Z,6236.00
2022-08-31T11:55:41.825Z,6360.00
2022-08-31T11:56:43.666Z,6168.00
2022-08-31T11:57:41.832Z,5716.00
2022-08-31T11:58:41.852Z,5412.00
2022-08-31T11:59:43.590Z,6024.00
2022-08-31T12:00:41.846Z,6704.00
2022-08-31T12:01:43.631Z,6636.00
2022-08-31T12:02:41.909Z,6660.00
2022-08-31T12:03:41.866Z,6756.00
2022-08-31T12:04:41.901Z,6792.00
2022-08-31T12:05:41.948Z,7028.00
2022-08-31T12:06:59.594Z,7064.00
2022-08-31T12:07:41.891Z,6976.00
2022-08-31T12:08:41.902Z,6668.00
2022-08-31T12:09:43.586Z,6692.00
2022-08-31T12:10:43.588Z,6536.00
2022-08-31T12:11:41.918Z,7404.00
2022-08-31T12:12:41.970Z,7700.00
2022-08-31T12:13:43.600Z,7876.00
2022-08-31T12:14:41.951Z,8080.00
2022-08-31T12:15:43.648Z,8164.00
2022-08-31T12:16:41.968Z,8152.00
2022-08-31T12:17:43.579Z,8200.00
2022-08-31T12:18:43.573Z,8328.00
2022-08-31T12:19:43.605Z,8548.00
2022-08-31T12:20:43.598Z,8644.00
2022-08-31T12:21:43.597Z,8620.00
2022-08-31T12:22:43.587Z,8592.00
2022-08-31T12:23:42.000Z,8676.00
2022-08-31T12:24:43.786Z,8628.00
2022-08-31T12:25:43.630Z,8624.00
2022-08-31T12:26:45.313Z,8640.00
2022-08-31T12:27:42.039Z,8756.00
2022-08-31T12:28:43.594Z,8872.00
2022-08-31T12:29:42.050Z,8856.00
2022-08-31T12:30:43.655Z,8832.00
2022-08-31T12:31:42.061Z,8784.00
2022-08-31T12:32:43.607Z,9080.00
2022-08-31T12:33:43.610Z,8960.00
2022-08-31T12:34:43.597Z,9092.00
2022-08-31T12:35:43.597Z,9440.00
2022-08-31T12:36:43.601Z,9656.00
2022-08-31T12:37:44.115Z,9740.00
2022-08-31T12:38:43.620Z,9792.00
2022-08-31T12:39:42.131Z,9820.00
2022-08-31T12:40:42.198Z,9920.00
2022-08-31T12:41:44.104Z,10112.00
2022-08-31T12:42:46.207Z,10180.00
2022-08-31T12:43:44.123Z,10292.00
2022-08-31T12:44:44.109Z,10332.00
2022-08-31T12:45:44.111Z,10336.00
2022-08-31T12:46:44.133Z,10456.00
2022-08-31T12:47:44.130Z,10680.00
2022-08-31T12:48:44.131Z,10720.00
2022-08-31T12:49:44.114Z,10696.00
2022-08-31T12:50:44.129Z,10788.00
2022-08-31T12:51:44.128Z,10928.00
2022-08-31T12:52:44.138Z,11020.00
2022-08-31T12:53:44.173Z,11092.00
2022-08-31T12:54:44.121Z,11128.00
2022-08-31T12:55:42.274Z,11280.00
2022-08-31T12:56:42.304Z,11416.00
2022-08-31T12:57:44.155Z,11536.00
2022-08-31T12:58:42.312Z,11616.00
2022-08-31T12:59:59.928Z,11772.00
2022-08-31T13:00:42.322Z,11848.00
2022-08-31T13:01:42.480Z,11916.00
2022-08-31T13:02:44.437Z,12072.00
2022-08-31T13:03:42.348Z,12208.00
2022-08-31T13:04:44.151Z,12332.00
2022-08-31T13:05:44.142Z,12468.00
2022-08-31T13:06:42.579Z,12544.00
2022-08-31T13:07:43.653Z,12720.00
2022-08-31T13:08:42.399Z,12788.00
2022-08-31T13:09:42.411Z,12924.00
2022-08-31T13:10:44.158Z,13092.00
2022-08-31T13:11:44.163Z,13236.00
2022-08-31T13:12:42.450Z,13396.00
2022-08-31T13:13:44.157Z,13556.00
2022-08-31T13:14:44.166Z,13684.00
2022-08-31T13:15:42.473Z,13812.00
2022-08-31T13:16:42.571Z,13972.00
2022-08-31T13:17:44.176Z,14084.00
2022-08-31T13:18:42.507Z,14164.00
2022-08-31T13:19:42.529Z,14224.00
2022-08-31T13:20:42.520Z,14228.00
2022-08-31T13:21:44.181Z,14352.00
2022-08-31T13:22:42.553Z,14480.00
2022-08-31T13:23:44.183Z,14548.00
2022-08-31T13:24:42.584Z,14632.00
2022-08-31T13:25:42.614Z,14748.00
2022-08-31T13:26:42.632Z,15060.00
2022-08-31T13:27:42.596Z,15424.00
2022-08-31T13:28:44.183Z,15616.00
2022-08-31T13:29:44.247Z,16272.00
2022-08-31T13:30:55.039Z,17348.00
2022-08-31T13:31:44.335Z,20288.00
2022-08-31T13:32:42.683Z,27456.00
2022-08-31T13:33:44.188Z,39072.00
2022-08-31T13:34:42.680Z,47040.00
2022-08-31T13:35:43.676Z,55552.00
2022-08-31T13:36:44.685Z,60768.00
2022-08-31T13:37:44.691Z,57984.00
2022-08-31T13:38:44.696Z,51808.00
2022-08-31T13:39:42.741Z,51424.00
2022-08-31T13:40:42.795Z,53536.00
2022-08-31T13:41:44.697Z,53504.00
2022-08-31T13:42:42.843Z,52512.00
2022-08-31T13:43:42.776Z,37440.00
2022-08-31T13:44:43.809Z,55296.00
2022-08-31T13:45:42.883Z,58432.00
2022-08-31T13:46:44.955Z,61248.00
2022-08-31T13:47:57.106Z,47296.00
2022-08-31T13:48:42.838Z,50848.00
2022-08-31T13:49:43.848Z,49440.00
2022-08-31T13:50:42.851Z,40384.00
2022-08-31T13:51:44.716Z,31104.00
2022-08-31T13:52:42.875Z,23264.00
2022-08-31T13:53:43.037Z,20928.00
2022-08-31T13:54:42.897Z,20096.00
2022-08-31T13:55:44.250Z,19968.00
2022-08-31T13:56:44.715Z,19648.00
2022-08-31T13:57:43.947Z,19424.00
2022-08-31T13:58:42.943Z,19168.00
2022-08-31T13:59:44.783Z,18944.00
2022-08-31T14:00:42.977Z,20064.00
2022-08-31T14:01:43.080Z,25728.00
2022-08-31T14:02:44.309Z,37888.00
2022-08-31T14:03:43.005Z,50880.00
2022-08-31T14:04:43.102Z,62624.00
2022-08-31T14:05:43.036Z,64064.00
2022-08-31T14:06:43.041Z,62432.00
2022-08-31T14:07:43.061Z,62656.00
2022-08-31T14:08:44.762Z,64128.00
2022-08-31T14:09:44.759Z,63392.00
2022-08-31T14:10:44.751Z,63264.00
2022-08-31T14:11:44.732Z,62688.00
2022-08-31T14:12:44.733Z,63040.00
2022-08-31T14:13:44.148Z,63296.00
2022-08-31T14:14:44.754Z,64672.00
2022-08-31T14:15:44.740Z,65504.00
2022-08-31T14:16:46.338Z,65280.00
2022-08-31T14:18:23.917Z,67200.00
2022-08-31T14:18:44.744Z,66400.00
2022-08-31T14:19:44.760Z,65088.00
2022-08-31T14:21:10.031Z,63104.00
2022-08-31T14:21:44.763Z,62848.00
2022-08-31T14:22:43.265Z,63552.00
2022-08-31T14:23:43.263Z,63744.00
2022-08-31T14:24:44.278Z,66368.00
2022-08-31T14:25:45.259Z,66080.00
2022-08-31T14:26:43.322Z,66688.00
2022-08-31T14:27:43.314Z,67456.00
2022-08-31T14:28:45.258Z,67424.00
2022-08-31T14:29:43.319Z,65728.00
2022-08-31T14:30:43.382Z,65568.00
2022-08-31T14:31:43.339Z,66208.00
2022-08-31T14:32:43.372Z,66784.00
2022-08-31T14:33:45.267Z,67072.00
2022-08-31T14:34:43.388Z,68224.00
2022-08-31T14:35:43.386Z,66464.00
2022-08-31T14:36:45.266Z,66720.00
2022-08-31T14:37:43.475Z,66496.00
2022-08-31T14:38:45.257Z,64672.00
2022-08-31T14:39:45.297Z,63584.00
2022-08-31T14:40:45.317Z,63584.00
2022-08-31T14:41:45.260Z,61280.00
2022-08-31T14:42:45.287Z,60160.00
2022-08-31T14:43:45.277Z,60096.00
2022-08-31T14:44:45.290Z,57984.00
2022-08-31T14:45:43.558Z,59840.00
2022-08-31T14:46:45.277Z,60896.00
2022-08-31T14:47:45.275Z,62688.00
2022-08-31T14:48:45.295Z,63072.00
2022-08-31T14:49:45.291Z,61472.00
2022-08-31T14:50:45.350Z,59264.00
2022-08-31T14:51:45.313Z,57216.00
2022-08-31T14:52:45.278Z,57376.00
2022-08-31T14:53:45.307Z,56800.00
2022-08-31T14:54:45.322Z,54656.00
2022-08-31T14:55:45.312Z,52480.00
2022-08-31T14:56:45.294Z,50784.00
2022-08-31T14:57:45.643Z,47040.00
2022-08-31T14:58:45.296Z,49152.00
2022-08-31T14:59:45.285Z,45248.00
2022-08-31T15:00:48.595Z,45248.00
2022-08-31T15:01:45.361Z,49600.00
2022-08-31T15:02:45.433Z,49632.00
2022-08-31T15:03:45.295Z,49472.00
2022-08-31T15:04:45.756Z,49248.00
2022-08-31T15:05:45.289Z,48640.00
2022-08-31T15:06:45.320Z,47520.00
2022-08-31T15:07:45.306Z,46272.00
2022-08-31T15:08:45.324Z,46496.00
2022-08-31T15:09:44.834Z,46016.00
2022-08-31T15:10:44.801Z,44960.00
2022-08-31T15:11:43.841Z,45120.00
2022-08-31T15:12:45.858Z,45280.00
2022-08-31T15:13:44.831Z,46944.00
2022-08-31T15:14:45.165Z,45696.00
2022-08-31T15:15:47.122Z,46368.00
2022-08-31T15:16:43.970Z,46368.00
2022-08-31T15:17:46.328Z,44640.00
2022-08-31T15:18:44.894Z,43616.00
2022-08-31T15:19:43.913Z,41984.00
2022-08-31T15:20:45.341Z,40000.00
2022-08-31T15:21:44.790Z,40832.00
2022-08-31T15:22:43.930Z,41472.00
2022-08-31T15:23:43.968Z,40736.00
2022-08-31T15:24:43.944Z,40896.00
2022-08-31T15:25:45.846Z,41024.00
2022-08-31T15:26:43.966Z,39840.00
2022-08-31T15:27:44.001Z,39968.00
2022-08-31T15:28:45.839Z,35424.00
2022-08-31T15:29:45.002Z,28640.00
2022-08-31T15:30:44.013Z,25408.00
2022-08-31T15:31:44.087Z,25152.00
2022-08-31T15:32:45.836Z,27328.00
2022-08-31T15:33:44.053Z,27488.00
2022-08-31T15:34:45.863Z,28096.00
2022-08-31T15:35:44.140Z,28992.00
2022-08-31T15:36:45.829Z,26720.00
2022-08-31T15:37:44.094Z,13364.00
2022-08-31T15:38:44.371Z,4148.00
2022-08-31T15:39:45.363Z,3532.00
2022-08-31T15:40:44.166Z,3324.00
2022-08-31T15:41:45.847Z,3148.00
2022-08-31T15:42:45.843Z,3008.00
2022-08-31T15:43:44.121Z,2880.00
2022-08-31T15:44:45.895Z,2756.00
2022-08-31T15:45:45.960Z,2644.00
2022-08-31T15:46:45.857Z,2544.00
2022-08-31T15:47:45.875Z,2468.00
2022-08-31T15:48:44.180Z,2388.00
2022-08-31T15:49:45.856Z,2312.00
2022-08-31T15:50:45.166Z,2248.00
2022-08-31T15:51:45.869Z,2188.00
2022-08-31T15:52:44.191Z,2132.00
2022-08-31T15:53:56.499Z,2080.00
2022-08-31T15:54:45.365Z,2032.00
2022-08-31T15:55:45.874Z,1984.00
2022-08-31T15:56:44.205Z,1936.00
2022-08-31T15:57:44.209Z,1900.00
2022-08-31T15:58:44.231Z,1876.00
2022-08-31T15:59:44.245Z,1840.00
2022-08-31T16:12:02.127Z,1560.00
2022-08-31T16:13:02.114Z,1540.00
2022-08-31T16:14:02.122Z,1520.00
2022-08-31T16:15:02.143Z,1500.00
2022-08-31T16:16:02.170Z,1480.00
2022-08-31T16:17:00.608Z,1460.00
2022-08-31T16:18:02.114Z,1440.00
2022-08-31T16:19:02.136Z,1424.00
2022-08-31T16:20:02.130Z,1408.00
2022-08-31T16:21:02.119Z,1392.00
2022-08-31T16:22:02.116Z,1372.00
2022-08-31T16:23:00.557Z,1356.00
2022-08-31T16:24:00.565Z,1340.00
2022-08-31T16:25:00.576Z,1328.00
2022-08-31T16:26:02.139Z,1316.00
2022-08-31T16:27:02.166Z,1300.00
2022-08-31T16:28:00.574Z,1288.00
2022-08-31T16:29:00.586Z,1272.00
2022-08-31T16:30:00.583Z,1264.00
2022-08-31T16:31:01.642Z,1248.00
2022-08-31T16:32:02.219Z,1236.00
2022-08-31T16:33:00.614Z,1216.00
2022-08-31T16:34:00.611Z,1204.00
2022-08-31T16:35:00.602Z,1188.00
2022-08-31T16:36:01.603Z,1168.00